createdAt,value
2023-06-19T00:02:16.370Z,100259.90
2023-06-19T00:07:20.344Z,100264.02
2023-06-19T00:12:23.167Z,100263.23
2023-06-19T00:17:29.021Z,100257.92
2023-06-19T00:22:32.118Z,100253.55
2023-06-19T00:27:34.921Z,100250.60
2023-06-19T00:32:47.546Z,100252.17
2023-06-19T00:37:50.666Z,100252.55
2023-06-19T00:42:53.537Z,100255.67
2023-06-19T00:47:58.901Z,100254.64
2023-06-19T00:53:04.641Z,100251.69
2023-06-19T00:58:07.622Z,100255.70
2023-06-19T01:03:10.760Z,100259.61
2023-06-19T01:08:44.739Z,100258.54
2023-06-19T01:13:59.448Z,100254.58
2023-06-19T01:19:04.078Z,100259.84
2023-06-19T01:24:06.989Z,100261.94
2023-06-19T01:29:10.414Z,100258.32
2023-06-19T01:34:16.095Z,100263.23
2023-06-19T01:39:21.002Z,100265.48
2023-06-19T01:44:24.012Z,100271.95
2023-06-19T01:49:27.409Z,100280.19
2023-06-19T01:54:30.228Z,100281.93
2023-06-19T01:59:33.336Z,100279.52
2023-06-19T02:04:36.118Z,100285.03
2023-06-19T02:09:39.779Z,100285.56
2023-06-19T02:14:43.083Z,100288.77
2023-06-19T02:19:45.959Z,100283.04
2023-06-19T02:24:48.776Z,100274.50
2023-06-19T02:29:51.591Z,100282.47
2023-06-19T02:34:54.391Z,100283.44
2023-06-19T02:39:57.151Z,100289.48
2023-06-19T02:45:04.475Z,100292.90
2023-06-19T02:50:08.127Z,100292.59
2023-06-19T02:55:10.940Z,100289.13
2023-06-19T03:00:14.345Z,100283.44
2023-06-19T03:05:17.309Z,100290.23
2023-06-19T03:10:20.210Z,100289.52
2023-06-19T03:15:23.107Z,100283.95
2023-06-19T03:20:26.370Z,100282.13
2023-06-19T03:25:35.978Z,100278.80
2023-06-19T03:30:39.033Z,100282.79
2023-06-19T03:35:42.203Z,100279.78
2023-06-19T03:40:46.740Z,100278.41
2023-06-19T03:45:49.759Z,100275.71
2023-06-19T03:50:52.855Z,100276.38
2023-06-19T03:55:56.816Z,100268.36
2023-06-19T04:00:59.794Z,100264.86
2023-06-19T04:06:02.795Z,100264.70
2023-06-19T04:11:05.697Z,100259.26
2023-06-19T04:16:08.524Z,100259.42
2023-06-19T04:21:11.413Z,100261.28
2023-06-19T04:26:14.234Z,100262.29
2023-06-19T04:31:19.795Z,100260.82
2023-06-19T04:36:22.687Z,100262.90
2023-06-19T04:41:25.574Z,100269.13
2023-06-19T04:46:28.361Z,100271.55
2023-06-19T04:51:34.349Z,100276.36
2023-06-19T04:56:37.122Z,100282.58
2023-06-19T05:01:41.759Z,100283.50
2023-06-19T05:06:44.560Z,100283.17
2023-06-19T05:11:47.338Z,100288.11
2023-06-19T05:16:50.314Z,100291.18
2023-06-19T05:21:53.249Z,100289.63
2023-06-19T05:26:56.041Z,100295.84
2023-06-19T05:31:58.946Z,100299.73
2023-06-19T05:37:04.765Z,100304.81
2023-06-19T05:42:08.232Z,100309.45
2023-06-19T05:47:11.135Z,100311.66
2023-06-19T05:52:14.051Z,100317.79
2023-06-19T05:57:17.372Z,100317.92
2023-06-19T06:02:21.257Z,100313.75
2023-06-19T06:07:24.085Z,100311.34
2023-06-19T06:12:26.995Z,100310.48
2023-06-19T06:17:30.007Z,100311.55
2023-06-19T06:22:33.086Z,100318.50
2023-06-19T06:27:36.027Z,100317.08
2023-06-19T06:32:39.402Z,100322.56
2023-06-19T06:37:42.481Z,100334.66
2023-06-19T06:42:45.272Z,100334.29
2023-06-19T06:47:48.657Z,100336.66
2023-06-19T06:52:54.990Z,100335.38
2023-06-19T06:57:58.239Z,100338.05
2023-06-19T07:03:01.235Z,100339.49
2023-06-19T07:08:05.003Z,100339.44
2023-06-19T07:13:07.847Z,100346.70
2023-06-19T07:18:10.738Z,100347.09
2023-06-19T07:23:13.765Z,100349.19
2023-06-19T07:28:16.780Z,100346.30
2023-06-19T07:33:19.556Z,100353.01
2023-06-19T07:38:23.569Z,100346.16
2023-06-19T07:43:26.756Z,100353.98
2023-06-19T07:48:29.635Z,100351.27
2023-06-19T07:53:32.433Z,100350.86
2023-06-19T07:58:35.286Z,100356.13
2023-06-19T08:03:39.031Z,100361.27
2023-06-19T08:08:42.194Z,100362.58
2023-06-19T08:13:45.113Z,100364.45
2023-06-19T08:18:48.395Z,100358.51
2023-06-19T08:23:51.328Z,100363.90
2023-06-19T08:28:54.354Z,100366.11
2023-06-19T08:33:57.821Z,100373.04
2023-06-19T08:39:09.597Z,100369.15
2023-06-19T08:44:12.944Z,100365.23
2023-06-19T08:49:16.651Z,100370.45
2023-06-19T08:54:19.404Z,100373.65
2023-06-19T08:59:23.263Z,100374.55
2023-06-19T09:04:28.717Z,100376.73
2023-06-19T09:09:34.168Z,100373.42
2023-06-19T09:14:45.532Z,100373.05
2023-06-19T09:19:53.621Z,100364.73
2023-06-19T09:25:02.840Z,100363.35
2023-06-19T09:30:09.343Z,100363.45
2023-06-19T09:35:16.069Z,100361.09
2023-06-19T09:40:27.692Z,100357.58
2023-06-19T09:45:35.163Z,100362.65
2023-06-19T09:50:40.653Z,100354.91
2023-06-19T09:55:49.009Z,100355.17
2023-06-19T10:01:15.264Z,100363.80
2023-06-19T10:06:20.301Z,100357.83
2023-06-19T10:11:57.167Z,100354.67
2023-06-19T10:17:10.096Z,100356.70
2023-06-19T10:22:21.546Z,100345.76
2023-06-19T10:27:27.013Z,100344.58
2023-06-19T10:32:32.452Z,100342.45
2023-06-19T10:37:36.106Z,100336.89
2023-06-19T10:42:49.680Z,100335.98
2023-06-19T10:47:56.307Z,100334.40
2023-06-19T10:52:59.363Z,100333.91
2023-06-19T10:58:02.324Z,100334.48
2023-06-19T11:03:08.655Z,100327.02
2023-06-19T11:08:11.832Z,100321.61
2023-06-19T11:13:28.418Z,100319.82
2023-06-19T11:18:46.790Z,100322.89
2023-06-19T11:23:50.856Z,100324.21
2023-06-19T11:28:54.972Z,100315.58
2023-06-19T11:34:06.275Z,100314.45
2023-06-19T11:39:16.863Z,100317.72
2023-06-19T11:44:19.953Z,100314.25
2023-06-19T11:49:25.867Z,100308.70
2023-06-19T11:54:38.416Z,100308.86
2023-06-19T11:59:42.557Z,100312.75
2023-06-19T12:04:45.491Z,100306.73
2023-06-19T12:09:48.488Z,100308.09
2023-06-19T12:14:51.287Z,100309.98
2023-06-19T12:19:54.482Z,100309.41
2023-06-19T12:24:57.313Z,100306.90
2023-06-19T12:30:00.353Z,100306.05
2023-06-19T12:35:07.565Z,100307.59
2023-06-19T12:40:12.232Z,100299.89
2023-06-19T12:45:15.119Z,100293.52
2023-06-19T12:50:18.120Z,100285.04
2023-06-19T12:55:24.073Z,100285.33
2023-06-19T13:00:27.094Z,100291.61
2023-06-19T13:05:30.412Z,100289.30
2023-06-19T13:10:33.412Z,100287.27
2023-06-19T13:15:40.843Z,100289.73
2023-06-19T13:20:46.626Z,100287.15
2023-06-19T13:25:49.517Z,100283.69
2023-06-19T13:30:52.596Z,100279.71
2023-06-19T13:35:55.861Z,100273.84
2023-06-19T13:40:58.728Z,100269.48
2023-06-19T13:46:09.480Z,100265.60
2023-06-19T13:51:19.098Z,100263.19
2023-06-19T13:56:28.106Z,100257.81
2023-06-19T14:01:31.137Z,100253.70
2023-06-19T14:06:34.397Z,100253.73
2023-06-19T14:11:37.498Z,100250.08
2023-06-19T14:16:40.417Z,100251.46
2023-06-19T14:21:43.274Z,100252.17
2023-06-19T14:26:46.195Z,100258.84
2023-06-19T14:31:49.036Z,100258.02
2023-06-19T14:36:52.187Z,100259.80
2023-06-19T14:41:55.102Z,100254.98
2023-06-19T14:46:59.551Z,100256.41
2023-06-19T14:52:02.649Z,100249.23
2023-06-19T14:57:10.254Z,100247.63
2023-06-19T15:02:16.103Z,100247.05
2023-06-19T15:07:19.411Z,100243.85
2023-06-19T15:12:24.534Z,100242.65
2023-06-19T15:17:27.441Z,100243.10
2023-06-19T15:22:30.333Z,100240.02
2023-06-19T15:27:35.927Z,100241.94
2023-06-19T15:32:40.374Z,100243.31
2023-06-19T15:37:43.977Z,100235.20
2023-06-19T15:42:47.164Z,100234.15
2023-06-19T15:47:50.460Z,100234.59
2023-06-19T15:53:00.912Z,100232.56
2023-06-19T15:58:05.838Z,100232.89
2023-06-19T16:03:21.817Z,100228.83
2023-06-19T16:08:32.244Z,100226.94
2023-06-19T16:13:35.182Z,100227.04
2023-06-19T16:18:37.965Z,100230.65
2023-06-19T16:23:41.879Z,100230.20
2023-06-19T16:28:46.367Z,100227.30
2023-06-19T16:33:49.185Z,100226.55
2023-06-19T16:38:53.060Z,100226.61
2023-06-19T16:43:56.939Z,100227.67
2023-06-19T16:49:01.574Z,100226.75
2023-06-19T16:54:06.846Z,100229.81
2023-06-19T16:59:11.181Z,100231.49
2023-06-19T17:04:14.149Z,100231.64
2023-06-19T17:09:18.267Z,100240.71
2023-06-19T17:14:21.820Z,100233.23
2023-06-19T17:19:24.693Z,100232.77
2023-06-19T17:24:27.721Z,100239.49
2023-06-19T17:29:30.895Z,100239.81
2023-06-19T17:34:33.702Z,100241.71
2023-06-19T17:39:36.519Z,100246.45
2023-06-19T17:44:40.881Z,100248.79
2023-06-19T17:49:44.423Z,100252.16
2023-06-19T17:54:51.494Z,100253.20
2023-06-19T17:59:55.976Z,100255.33
2023-06-19T18:05:03.129Z,100252.97
2023-06-19T18:10:07.094Z,100257.52
2023-06-19T18:15:10.481Z,100263.77
2023-06-19T18:20:13.741Z,100266.98
2023-06-19T18:25:16.679Z,100276.42
2023-06-19T18:30:19.601Z,100278.73
2023-06-19T18:35:23.073Z,100278.98
2023-06-19T18:40:28.199Z,100281.51
2023-06-19T18:45:31.847Z,100289.09
2023-06-19T18:50:35.631Z,100286.63
2023-06-19T18:55:43.210Z,100290.60
2023-06-19T19:00:50.180Z,100296.67
2023-06-19T19:05:55.951Z,100304.54
2023-06-19T19:10:58.866Z,100310.75
2023-06-19T19:16:01.985Z,100319.89
2023-06-19T19:21:06.366Z,100325.62
2023-06-19T19:26:09.279Z,100329.38
2023-06-19T19:31:16.160Z,100328.95
2023-06-19T19:36:20.234Z,100332.25
2023-06-19T19:41:29.347Z,100336.13
2023-06-19T19:46:32.274Z,100342.30
2023-06-19T19:51:35.299Z,100335.27
2023-06-19T19:56:38.152Z,100335.90
2023-06-19T20:01:41.067Z,100336.16
2023-06-19T20:06:45.909Z,100336.70
2023-06-19T20:11:48.730Z,100341.52
2023-06-19T20:16:52.064Z,100336.85
2023-06-19T20:21:54.902Z,100340.16
2023-06-19T20:26:58.617Z,100342.81
2023-06-19T20:32:01.508Z,100341.59
2023-06-19T20:37:08.793Z,100333.35
2023-06-19T20:42:13.498Z,100334.77
2023-06-19T20:47:19.754Z,100337.55
2023-06-19T20:52:22.617Z,100339.54
2023-06-19T20:57:25.430Z,100338.02
2023-06-19T21:02:31.442Z,100339.60
2023-06-19T21:07:34.899Z,100335.13
2023-06-19T21:12:41.398Z,100339.42
2023-06-19T21:17:47.903Z,100336.36
2023-06-19T21:22:51.150Z,100337.72
2023-06-19T21:27:53.970Z,100341.80
2023-06-19T21:32:57.050Z,100343.86
2023-06-19T21:37:59.948Z,100344.23
2023-06-19T21:43:02.769Z,100347.34
2023-06-19T21:48:06.033Z,100350.92
2023-06-19T21:53:10.533Z,100350.27
2023-06-19T21:58:13.591Z,100351.27
2023-06-19T22:03:16.586Z,100349.34
2023-06-19T22:08:27.215Z,100344.27
2023-06-19T22:13:40.697Z,100343.16
2023-06-19T22:18:43.525Z,100342.90
2023-06-19T22:23:48.325Z,100347.09
2023-06-19T22:28:52.172Z,100348.66
2023-06-19T22:33:54.966Z,100345.12
2023-06-19T22:38:57.784Z,100341.60
2023-06-19T22:44:02.680Z,100344.16
2023-06-19T22:49:05.474Z,100350.82
2023-06-19T22:54:08.707Z,100351.06
2023-06-19T22:59:12.323Z,100345.70
2023-06-19T23:04:15.173Z,100342.90
2023-06-19T23:09:19.057Z,100334.80
2023-06-19T23:14:21.838Z,100339.38
2023-06-19T23:19:27.668Z,100342.14
2023-06-19T23:24:33.180Z,100339.04
2023-06-19T23:29:37.314Z,100338.36
2023-06-19T23:34:40.318Z,100340.20
2023-06-19T23:39:43.260Z,100341.99
2023-06-19T23:44:46.225Z,100344.67
2023-06-19T23:49:50.330Z,100347.70
2023-06-19T23:54:53.203Z,100350.14
2023-06-19T23:59:56.114Z,100353.11
